Chalgrove, United Kingdom
Current Conditions -  °F | °C
As of 4:50 PM on Thursday 27 Nov 2014 (Local Time) from EGUB Reporting Station
Broken Clouds Broken Clouds  
Wind Chill:   Ceiling: 5000
Heat Index:   Visibility: 6mi
Dew Point:   Wind: 5mph
Humidity: 87%   Direction: 160°SSE
Pressure: 29.56"   Gusts: NA
Location:  51.66°N, 1.08°W
Report Text: EGUB 271650Z 16004KT 9999 FEW025 BKN050 09/07 Q1001 BLU TEMPO SCT015 WHT
Loading
Personal Weather Stations






























Interactive Weather Map New forecast layout! Learn more

10-Day Weather Forecast

Advertisements
Track Severe Weather on mobile